createdAt,value
2022-10-17T00:00:16.572Z,101865.53
2022-10-17T00:02:48.575Z,101868.28
2022-10-17T00:05:20.372Z,101870.16
2022-10-17T00:07:53.260Z,101881.06
2022-10-17T00:10:25.026Z,101877.28
2022-10-17T00:12:56.966Z,101887.16
2022-10-17T00:15:28.874Z,101896.38
2022-10-17T00:18:01.207Z,101909.81
2022-10-17T00:20:35.462Z,101903.50
2022-10-17T00:23:07.210Z,101907.09
2022-10-17T00:25:40.607Z,101907.44
2022-10-17T00:28:13.647Z,101915.63
2022-10-17T00:30:45.470Z,101902.00
2022-10-17T00:33:17.387Z,101907.44
2022-10-17T00:35:49.235Z,101905.75
2022-10-17T00:38:21.073Z,101914.78
2022-10-17T00:40:52.928Z,101903.69
2022-10-17T00:43:25.046Z,101898.25
2022-10-17T00:45:56.993Z,101895.53
2022-10-17T00:48:28.837Z,101897.00
2022-10-17T00:51:00.717Z,101906.69
2022-10-17T00:53:33.735Z,101899.56
2022-10-17T00:56:06.315Z,101892.03
2022-10-17T00:58:38.156Z,101901.91
2022-10-17T01:01:10.306Z,101917.22
2022-10-17T01:03:42.299Z,101909.72
2022-10-17T01:06:14.177Z,101910.00
2022-10-17T01:08:46.210Z,101922.59
2022-10-17T01:11:27.084Z,101932.44
2022-10-17T01:14:06.485Z,101934.16
2022-10-17T01:16:57.955Z,101926.25
2022-10-17T01:19:51.110Z,101931.97
2022-10-17T01:22:33.621Z,101933.94
2022-10-17T01:25:11.669Z,101920.59
2022-10-17T01:28:02.438Z,101917.28
2022-10-17T01:30:55.765Z,101916.44
2022-10-17T01:33:45.989Z,101921.88
2022-10-17T01:36:27.071Z,101915.78
2022-10-17T01:39:10.908Z,101916.81
2022-10-17T01:41:42.810Z,101902.91
2022-10-17T01:44:29.709Z,101907.06
2022-10-17T01:47:05.666Z,101909.13
2022-10-17T01:49:39.443Z,101909.31
2022-10-17T01:52:15.104Z,101896.94
2022-10-17T01:54:51.610Z,101891.47
2022-10-17T01:57:50.280Z,101888.09
2022-10-17T02:00:24.998Z,101890.19
2022-10-17T02:03:00.805Z,101886.38
2022-10-17T02:05:37.089Z,101877.19
2022-10-17T02:08:09.808Z,101891.66
2022-10-17T02:10:50.623Z,101876.16
2022-10-17T02:13:52.430Z,101872.41
2022-10-17T02:16:39.475Z,101865.06
2022-10-17T02:19:22.511Z,101869.50
2022-10-17T02:22:11.139Z,101875.75
2022-10-17T02:24:57.724Z,101862.13
2022-10-17T02:27:39.350Z,101866.75
2022-10-17T02:30:23.002Z,101861.50
2022-10-17T02:33:02.230Z,101855.38
2022-10-17T02:35:37.827Z,101849.28
2022-10-17T02:38:11.046Z,101837.72
2022-10-17T02:40:44.601Z,101847.78
2022-10-17T02:43:16.609Z,101848.22
2022-10-17T02:45:49.058Z,101847.00
2022-10-17T02:48:42.765Z,101838.25
2022-10-17T02:51:23.411Z,101833.06
2022-10-17T02:54:26.202Z,101833.34
2022-10-17T02:57:03.112Z,101822.44
2022-10-17T02:59:36.309Z,101827.88
2022-10-17T03:02:08.596Z,101816.31
2022-10-17T03:04:47.140Z,101809.81
2022-10-17T03:07:19.016Z,101809.19
2022-10-17T03:09:51.120Z,101817.38
2022-10-17T03:12:23.518Z,101813.97
2022-10-17T03:14:55.517Z,101826.59
2022-10-17T03:17:27.513Z,101810.22
2022-10-17T03:19:59.468Z,101804.78
2022-10-17T03:22:32.012Z,101806.47
2022-10-17T03:25:05.807Z,101799.31
2022-10-17T03:27:40.560Z,101803.75
2022-10-17T03:30:13.698Z,101798.47
2022-10-17T03:32:47.452Z,101799.31
2022-10-17T03:35:19.593Z,101800.16
2022-10-17T03:37:55.826Z,101795.56
2022-10-17T03:40:28.683Z,101795.56
2022-10-17T03:43:00.655Z,101802.69
2022-10-17T03:45:33.794Z,101795.56
2022-10-17T03:48:06.259Z,101799.31
2022-10-17T03:50:38.140Z,101803.06
2022-10-17T03:53:10.144Z,101802.22
2022-10-17T03:55:42.173Z,101802.22
2022-10-17T03:58:14.218Z,101801.38
2022-10-17T04:00:46.073Z,101796.97
2022-10-17T04:03:18.895Z,101796.97
2022-10-17T04:05:52.167Z,101796.16
2022-10-17T04:08:24.538Z,101791.50
2022-10-17T04:11:10.513Z,101791.72
2022-10-17T04:13:43.765Z,101798.22
2022-10-17T04:16:16.826Z,101799.25
2022-10-17T04:19:01.803Z,101792.94
2022-10-17T04:21:39.106Z,101797.53
2022-10-17T04:24:13.253Z,101800.50
2022-10-17T04:27:03.822Z,101800.00
2022-10-17T04:29:38.453Z,101798.34
2022-10-17T04:32:16.050Z,101789.69
2022-10-17T04:34:55.058Z,101791.78
2022-10-17T04:37:29.508Z,101786.50
2022-10-17T04:40:02.304Z,101786.69
2022-10-17T04:42:37.107Z,101784.19
2022-10-17T04:45:09.929Z,101778.91
2022-10-17T04:47:42.664Z,101777.22
2022-10-17T04:50:14.635Z,101782.00
2022-10-17T04:52:47.754Z,101766.69
2022-10-17T04:55:20.295Z,101762.69
2022-10-17T04:57:52.411Z,101766.44
2022-10-17T05:00:26.012Z,101775.63
2022-10-17T05:03:19.667Z,101775.44
2022-10-17T05:05:51.645Z,101767.63
2022-10-17T05:08:23.739Z,101775.19
2022-10-17T05:10:55.826Z,101766.16
2022-10-17T05:13:28.293Z,101768.03
2022-10-17T05:16:00.818Z,101769.91
2022-10-17T05:18:32.638Z,101765.50
2022-10-17T05:21:04.758Z,101771.34
2022-10-17T05:23:37.838Z,101764.38
2022-10-17T05:26:10.157Z,101767.31
2022-10-17T05:28:42.662Z,101767.69
2022-10-17T05:31:15.023Z,101763.25
2022-10-17T05:33:47.454Z,101775.22
2022-10-17T05:36:19.949Z,101769.78
2022-10-17T05:38:52.510Z,101773.53
2022-10-17T05:41:24.550Z,101770.97
2022-10-17T05:43:57.240Z,101765.09
2022-10-17T05:46:43.148Z,101766.28
2022-10-17T05:49:31.945Z,101772.97
2022-10-17T05:52:05.539Z,101775.69
2022-10-17T05:54:45.870Z,101771.28
2022-10-17T05:57:17.982Z,101771.69
2022-10-17T05:59:50.132Z,101771.69
2022-10-17T06:02:25.054Z,101769.97
2022-10-17T06:04:57.041Z,101772.72
2022-10-17T06:07:29.761Z,101770.34
2022-10-17T06:10:02.239Z,101772.03
2022-10-17T06:12:34.440Z,101770.34
2022-10-17T06:15:07.124Z,101769.72
2022-10-17T06:17:39.727Z,101771.97
2022-10-17T06:20:11.581Z,101766.31
2022-10-17T06:22:43.853Z,101767.34
2022-10-17T06:25:21.111Z,101776.19
2022-10-17T06:30:29.901Z,101769.72
2022-10-17T06:33:01.967Z,101760.31
2022-10-17T06:35:34.067Z,101773.06
2022-10-17T06:38:06.652Z,101768.69
2022-10-17T06:40:40.610Z,101760.50
2022-10-17T06:43:13.142Z,101756.09
2022-10-17T06:46:02.701Z,101759.00
2022-10-17T06:48:38.146Z,101762.56
2022-10-17T06:51:18.987Z,101767.00
2022-10-17T06:53:58.895Z,101764.91
2022-10-17T06:56:51.007Z,101763.50
2022-10-17T06:59:31.932Z,101767.72
2022-10-17T07:02:10.458Z,101769.41
2022-10-17T07:04:42.744Z,101765.44
2022-10-17T07:07:17.707Z,101770.53
2022-10-17T07:09:51.507Z,101769.28
2022-10-17T07:12:24.978Z,101768.06
2022-10-17T07:14:57.118Z,101755.09
2022-10-17T07:17:29.235Z,101771.06
2022-10-17T07:20:01.229Z,101770.69
2022-10-17T07:22:35.509Z,101774.69
2022-10-17T07:25:08.225Z,101778.75
2022-10-17T07:27:50.482Z,101790.56
2022-10-17T07:30:23.461Z,101805.78
2022-10-17T07:33:07.167Z,101805.00
2022-10-17T07:35:44.321Z,101779.06
2022-10-17T07:38:16.798Z,101792.94
2022-10-17T07:40:54.628Z,101789.84
2022-10-17T07:43:27.066Z,101792.84
2022-10-17T07:46:01.152Z,101793.94
2022-10-17T07:48:33.161Z,101788.94
2022-10-17T07:51:07.113Z,101776.41
2022-10-17T07:53:41.722Z,101796.59
2022-10-17T07:56:15.918Z,101810.75
2022-10-17T07:58:48.398Z,101809.81
2022-10-17T08:01:20.258Z,101811.22
2022-10-17T08:03:52.232Z,101800.00
2022-10-17T08:06:24.124Z,101806.81
2022-10-17T08:08:57.871Z,101798.03
2022-10-17T08:11:29.707Z,101787.16
2022-10-17T08:14:01.630Z,101789.06
2022-10-17T08:16:33.669Z,101790.13
2022-10-17T08:21:46.903Z,101794.38
2022-10-17T08:24:18.856Z,101789.56
2022-10-17T08:26:51.894Z,101773.84
2022-10-17T08:29:24.228Z,101770.69
2022-10-17T08:32:00.883Z,101770.91
2022-10-17T08:34:32.999Z,101767.56
2022-10-17T08:37:04.970Z,101768.00
2022-10-17T08:39:37.829Z,101765.50
2022-10-17T08:42:26.079Z,101771.00
2022-10-17T08:45:16.958Z,101745.78
2022-10-17T08:47:53.410Z,101751.66
2022-10-17T08:50:34.306Z,101750.84
2022-10-17T08:53:13.290Z,101756.13
2022-10-17T08:55:50.012Z,101750.88
2022-10-17T08:58:28.422Z,101751.28
2022-10-17T09:01:25.043Z,101764.16
2022-10-17T09:04:10.325Z,101782.91
2022-10-17T09:06:54.483Z,101781.47
2022-10-17T09:09:55.086Z,101784.00
2022-10-17T09:12:45.642Z,101776.63
2022-10-17T09:15:38.905Z,101777.69
2022-10-17T09:18:33.954Z,101770.75
2022-10-17T09:21:19.957Z,101762.31
2022-10-17T09:23:59.699Z,101771.56
2022-10-17T09:26:42.147Z,101776.19
2022-10-17T09:29:23.163Z,101772.00
2022-10-17T09:32:01.657Z,101776.00
2022-10-17T09:34:33.561Z,101778.72
2022-10-17T09:37:12.678Z,101775.34
2022-10-17T09:39:44.887Z,101788.41
2022-10-17T09:42:21.645Z,101769.41
2022-10-17T09:45:16.659Z,101775.31
2022-10-17T09:48:10.331Z,101771.91
2022-10-17T09:50:42.161Z,101763.03
2022-10-17T09:53:17.564Z,101752.28
2022-10-17T09:55:58.593Z,101762.38
2022-10-17T09:58:41.510Z,101760.47
2022-10-17T10:01:29.711Z,101760.41
2022-10-17T10:04:13.075Z,101767.56
2022-10-17T10:07:05.877Z,101769.63
2022-10-17T10:09:39.641Z,101763.69
2022-10-17T10:12:24.722Z,101770.38
2022-10-17T10:14:57.784Z,101773.69
2022-10-17T10:17:35.491Z,101773.41
2022-10-17T10:20:33.464Z,101781.16
2022-10-17T10:23:17.484Z,101791.66
2022-10-17T10:25:56.510Z,101785.28
2022-10-17T10:28:30.705Z,101783.94
2022-10-17T10:31:06.196Z,101783.91
2022-10-17T10:33:42.996Z,101778.94
2022-10-17T10:36:16.020Z,101780.38
2022-10-17T10:38:53.229Z,101788.72
2022-10-17T10:41:27.869Z,101782.13
2022-10-17T10:43:59.873Z,101775.69
2022-10-17T10:46:32.023Z,101774.22
2022-10-17T10:49:04.369Z,101774.78
2022-10-17T10:51:42.536Z,101783.03
2022-10-17T10:54:32.865Z,101773.97
2022-10-17T10:57:07.394Z,101780.28
2022-10-17T11:00:04.146Z,101788.53
2022-10-17T11:03:13.850Z,101797.78
2022-10-17T11:05:57.744Z,101802.59
2022-10-17T11:08:40.889Z,101793.88
2022-10-17T11:11:29.471Z,101798.47
2022-10-17T11:14:12.997Z,101791.22
2022-10-17T11:17:10.570Z,101792.44
2022-10-17T11:19:53.003Z,101792.84
2022-10-17T11:22:46.732Z,101797.66
2022-10-17T11:25:33.472Z,101794.81
2022-10-17T11:28:16.358Z,101794.97
2022-10-17T11:30:55.516Z,101800.91
2022-10-17T11:33:32.172Z,101799.16
2022-10-17T11:36:06.331Z,101808.34
2022-10-17T11:38:45.858Z,101795.84
2022-10-17T11:41:31.629Z,101791.56
2022-10-17T11:44:03.488Z,101784.50
2022-10-17T11:46:36.085Z,101774.94
2022-10-17T11:49:16.126Z,101777.69
2022-10-17T11:52:02.275Z,101776.03
2022-10-17T11:54:50.521Z,101777.94
2022-10-17T11:57:49.506Z,101766.56
2022-10-17T12:00:27.151Z,101780.19
2022-10-17T12:03:32.657Z,101815.78
2022-10-17T12:06:18.938Z,101821.94
2022-10-17T12:09:00.836Z,101824.22
2022-10-17T12:11:53.490Z,101832.41
2022-10-17T12:14:45.695Z,101833.69
2022-10-17T12:17:40.457Z,101833.16
2022-10-17T12:20:23.627Z,101852.81
2022-10-17T12:23:04.748Z,101845.25
2022-10-17T12:25:42.650Z,101860.84
2022-10-17T12:28:17.692Z,101852.44
2022-10-17T12:31:29.592Z,101842.31
2022-10-17T12:34:05.612Z,101838.13
2022-10-17T12:36:38.546Z,101825.03
2022-10-17T12:39:13.653Z,101826.31
2022-10-17T12:41:46.539Z,101829.25
2022-10-17T12:44:21.412Z,101842.50
2022-10-17T12:47:29.289Z,101844.81
2022-10-17T12:50:01.593Z,101853.66
2022-10-17T12:52:35.080Z,101858.09
2022-10-17T12:55:14.043Z,101862.53
2022-10-17T12:57:50.718Z,101857.66
2022-10-17T13:00:25.416Z,101865.88
2022-10-17T13:03:03.734Z,101877.09
2022-10-17T13:05:37.719Z,101865.47
2022-10-17T13:08:36.133Z,101877.28
2022-10-17T13:11:09.225Z,101879.81
2022-10-17T13:13:53.465Z,101921.16
2022-10-17T13:16:31.370Z,101948.75
2022-10-17T13:19:12.685Z,101929.81
2022-10-17T13:22:06.064Z,101905.78
2022-10-17T13:24:40.631Z,101891.88
2022-10-17T13:27:30.539Z,101878.59
2022-10-17T13:30:29.358Z,101876.50
2022-10-17T13:33:18.154Z,101864.91
2022-10-17T13:36:05.674Z,101893.34
2022-10-17T13:38:40.359Z,101896.69
2022-10-17T13:41:34.869Z,101888.28
2022-10-17T13:44:28.791Z,101901.31
2022-10-17T13:47:01.055Z,101919.63
2022-10-17T13:49:40.391Z,101915.22
2022-10-17T13:52:18.436Z,101924.06
2022-10-17T13:54:51.849Z,101945.13
2022-10-17T13:57:27.928Z,101947.03
2022-10-17T14:00:09.859Z,101943.44
2022-10-17T14:02:46.752Z,101927.84
2022-10-17T14:05:20.994Z,101922.38
2022-10-17T14:08:12.987Z,101926.16
2022-10-17T14:10:46.222Z,101913.97
2022-10-17T14:13:28.623Z,101909.34
2022-10-17T14:16:02.123Z,101902.81
2022-10-17T14:18:36.713Z,101893.75
2022-10-17T14:24:27.974Z,101889.31
2022-10-17T14:27:00.531Z,101887.25
2022-10-17T14:29:51.020Z,101890.81
2022-10-17T14:32:23.219Z,101888.72
2022-10-17T14:35:05.556Z,101901.56
2022-10-17T14:37:45.020Z,101918.00
2022-10-17T14:40:23.664Z,101922.00
2022-10-17T14:42:58.229Z,101927.88
2022-10-17T14:45:32.548Z,101928.28
2022-10-17T14:48:10.465Z,101950.19
2022-10-17T14:50:46.800Z,101956.50
2022-10-17T14:53:21.725Z,101972.94
2022-10-17T14:55:58.525Z,101981.16
2022-10-17T14:58:33.800Z,101982.22
2022-10-17T15:01:06.015Z,101990.63
2022-10-17T15:03:37.842Z,101983.66
2022-10-17T15:06:20.217Z,101991.88
2022-10-17T15:08:52.027Z,101991.88
2022-10-17T15:11:24.413Z,101988.09
2022-10-17T15:13:56.933Z,102002.63
2022-10-17T15:16:33.593Z,101998.19
2022-10-17T15:19:05.525Z,102012.53
2022-10-17T15:21:43.253Z,102018.03
2022-10-17T15:24:18.620Z,102010.66
2022-10-17T15:26:50.661Z,102018.22
2022-10-17T15:29:22.684Z,102021.81
2022-10-17T15:31:54.483Z,102024.75
2022-10-17T15:34:26.520Z,102024.75
2022-10-17T15:36:58.797Z,102026.00
2022-10-17T15:39:30.836Z,102030.63
2022-10-17T15:42:03.511Z,102031.50
2022-10-17T15:44:36.606Z,102033.56
2022-10-17T15:47:19.655Z,102016.94
2022-10-17T15:49:51.982Z,102023.47
2022-10-17T15:52:24.105Z,102024.50
2022-10-17T15:54:59.501Z,102036.13
2022-10-17T15:57:38.853Z,102045.81
2022-10-17T16:00:23.667Z,102038.63
2022-10-17T16:02:55.909Z,102039.91
2022-10-17T16:05:29.102Z,102046.63
2022-10-17T16:08:00.964Z,102038.41
2022-10-17T16:10:33.001Z,102043.22
2022-10-17T16:13:04.883Z,102043.88
2022-10-17T16:15:37.023Z,102046.81
2022-10-17T16:18:10.076Z,102051.25
2022-10-17T16:20:42.217Z,102051.03
2022-10-17T16:23:14.597Z,102052.75
2022-10-17T16:25:46.420Z,102051.66
2022-10-17T16:28:18.431Z,102057.78
2022-10-17T16:30:50.356Z,102063.47
2022-10-17T16:33:22.455Z,102050.84
2022-10-17T16:35:54.400Z,102055.47
2022-10-17T16:38:26.250Z,102059.06
2022-10-17T16:40:58.424Z,102060.97
2022-10-17T16:43:36.073Z,102059.25
2022-10-17T16:46:07.985Z,102068.31
2022-10-17T16:51:18.769Z,102070.41
2022-10-17T16:53:52.914Z,102074.41
2022-10-17T16:56:25.089Z,102081.97
2022-10-17T16:58:57.289Z,102080.09
2022-10-17T17:01:30.443Z,102076.69
2022-10-17T17:04:05.672Z,102091.69
2022-10-17T17:06:37.750Z,102090.84
2022-10-17T17:09:09.843Z,102085.56
2022-10-17T17:11:41.675Z,102096.31
2022-10-17T17:14:13.892Z,102100.09
2022-10-17T17:16:45.911Z,102096.31
2022-10-17T17:19:17.735Z,102102.63
2022-10-17T17:21:52.173Z,102103.03
2022-10-17T17:24:24.048Z,102101.31
2022-10-17T17:26:56.630Z,102115.88
2022-10-17T17:29:28.578Z,102110.19
2022-10-17T17:32:00.526Z,102107.47
2022-10-17T17:34:36.131Z,102110.00
2022-10-17T17:37:08.149Z,102109.78
2022-10-17T17:39:40.043Z,102114.03
2022-10-17T17:42:11.897Z,102107.50
2022-10-17T17:44:43.952Z,102117.38
2022-10-17T17:47:15.824Z,102120.13
2022-10-17T17:49:47.730Z,102124.56
2022-10-17T17:52:22.557Z,102135.50
2022-10-17T17:54:54.485Z,102132.16
2022-10-17T17:57:26.394Z,102136.78
2022-10-17T17:59:58.303Z,102127.72
2022-10-17T18:02:30.446Z,102132.16
2022-10-17T18:05:02.781Z,102130.25
2022-10-17T18:07:37.838Z,102134.22
2022-10-17T18:12:46.931Z,102132.16
2022-10-17T18:15:19.130Z,102123.28
2022-10-17T18:17:51.006Z,102135.06
2022-10-17T18:20:22.879Z,102123.28
2022-10-17T18:22:54.956Z,102128.75
2022-10-17T18:25:26.833Z,102129.59
2022-10-17T18:27:58.738Z,102130.84
2022-10-17T18:30:33.731Z,102134.41
2022-10-17T18:33:06.641Z,102134.84
2022-10-17T18:35:38.626Z,102134.19
2022-10-17T18:38:10.537Z,102142.19
2022-10-17T18:40:43.415Z,102138.81
2022-10-17T18:43:16.966Z,102149.75
2022-10-17T18:45:48.917Z,102157.16
2022-10-17T18:48:20.769Z,102156.94
2022-10-17T18:50:52.607Z,102164.75
2022-10-17T18:53:24.404Z,102163.69
2022-10-17T18:55:56.660Z,102165.78
2022-10-17T18:58:28.696Z,102164.09
2022-10-17T19:01:05.159Z,102165.56
2022-10-17T19:03:37.491Z,102165.56
2022-10-17T19:06:11.133Z,102172.06
2022-10-17T19:08:43.973Z,102183.03
2022-10-17T19:11:19.811Z,102179.63
2022-10-17T19:13:52.185Z,102170.78
2022-10-17T19:16:27.504Z,102159.84
2022-10-17T19:19:07.427Z,102170.13
2022-10-17T19:21:39.752Z,102181.75
2022-10-17T19:24:14.454Z,102187.22
2022-10-17T19:26:47.515Z,102194.38
2022-10-17T19:29:20.349Z,102199.44
2022-10-17T19:31:52.929Z,102190.38
2022-10-17T19:34:24.777Z,102186.38
2022-10-17T19:36:56.713Z,102185.28
2022-10-17T19:39:28.630Z,102190.91
2022-10-17T19:42:05.863Z,102195.47
2022-10-17T19:44:38.873Z,102199.66
2022-10-17T19:47:10.839Z,102193.75
2022-10-17T19:49:46.483Z,102208.03
2022-10-17T19:52:20.948Z,102207.09
2022-10-17T19:54:52.773Z,102205.16
2022-10-17T19:57:25.762Z,102212.25
2022-10-17T19:59:57.904Z,102222.75
2022-10-17T20:02:30.002Z,102229.63
2022-10-17T20:05:18.882Z,102228.31
2022-10-17T20:07:51.319Z,102233.31
2022-10-17T20:10:23.155Z,102234.56
2022-10-17T20:12:55.013Z,102240.44
2022-10-17T20:15:26.978Z,102255.50
2022-10-17T20:17:58.897Z,102252.50
2022-10-17T20:20:30.689Z,102250.84
2022-10-17T20:23:03.595Z,102261.09
2022-10-17T20:25:38.114Z,102261.09
2022-10-17T20:28:09.948Z,102265.06
2022-10-17T20:30:46.378Z,102263.75
2022-10-17T20:33:18.256Z,102278.66
2022-10-17T20:35:50.167Z,102274.06
2022-10-17T20:38:22.036Z,102275.94
2022-10-17T20:40:53.941Z,102291.66
2022-10-17T20:43:25.826Z,102288.94
2022-10-17T20:46:04.554Z,102298.16
2022-10-17T20:48:41.735Z,102299.22
2022-10-17T20:51:13.646Z,102305.34
2022-10-17T20:53:45.497Z,102302.59
2022-10-17T20:56:20.335Z,102310.78
2022-10-17T20:59:05.218Z,102325.31
2022-10-17T21:01:37.150Z,102325.13
2022-10-17T21:07:00.994Z,102328.72
2022-10-17T21:09:33.230Z,102323.44
2022-10-17T21:12:05.564Z,102326.84
2022-10-17T21:14:37.572Z,102333.50
2022-10-17T21:17:09.850Z,102335.41
2022-10-17T21:19:41.598Z,102331.63
2022-10-17T21:22:13.441Z,102328.91
2022-10-17T21:24:45.278Z,102328.91
2022-10-17T21:27:18.897Z,102328.03
2022-10-17T21:29:51.956Z,102324.47
2022-10-17T21:32:33.595Z,102326.56
2022-10-17T21:35:16.176Z,102332.22
2022-10-17T21:37:48.949Z,102327.94
2022-10-17T21:40:20.871Z,102330.03
2022-10-17T21:42:53.058Z,102336.94
2022-10-17T21:45:26.198Z,102337.97
2022-10-17T21:48:13.739Z,102344.28
2022-10-17T21:50:45.735Z,102338.31
2022-10-17T21:53:17.546Z,102346.53
2022-10-17T21:55:49.443Z,102340.41
2022-10-17T21:58:21.858Z,102336.84
2022-10-17T22:00:54.422Z,102337.00
2022-10-17T22:03:26.244Z,102332.56
2022-10-17T22:06:07.129Z,102337.22
2022-10-17T22:08:51.024Z,102333.66
2022-10-17T22:11:26.956Z,102323.91
2022-10-17T22:14:05.092Z,102329.84
2022-10-17T22:16:38.238Z,102340.78
2022-10-17T22:19:11.242Z,102348.97
2022-10-17T22:21:43.262Z,102345.22
2022-10-17T22:24:17.149Z,102344.19
2022-10-17T22:26:49.462Z,102349.81
2022-10-17T22:29:21.277Z,102352.78
2022-10-17T22:31:53.260Z,102348.97
2022-10-17T22:34:25.350Z,102352.38
2022-10-17T22:36:57.281Z,102346.91
2022-10-17T22:39:29.238Z,102342.97
2022-10-17T22:42:01.164Z,102342.97
2022-10-17T22:44:33.062Z,102340.41
2022-10-17T22:47:04.899Z,102343.16
2022-10-17T22:49:36.885Z,102338.72
2022-10-17T22:52:08.730Z,102343.50
2022-10-17T22:54:40.609Z,102339.97
2022-10-17T22:57:13.080Z,102343.50
2022-10-17T22:59:45.043Z,102344.75
2022-10-17T23:02:17.209Z,102340.50
2022-10-17T23:04:49.055Z,102344.47
2022-10-17T23:07:20.887Z,102346.34
2022-10-17T23:09:52.930Z,102346.53
2022-10-17T23:12:24.842Z,102349.47
2022-10-17T23:14:57.010Z,102349.81
2022-10-17T23:17:29.028Z,102350.50
2022-10-17T23:20:00.961Z,102352.56
2022-10-17T23:22:33.042Z,102351.53
2022-10-17T23:25:05.531Z,102364.16
2022-10-17T23:27:37.618Z,102367.53
2022-10-17T23:30:11.732Z,102364.63
2022-10-17T23:32:43.942Z,102370.94
2022-10-17T23:35:15.779Z,102374.69
2022-10-17T23:37:47.701Z,102365.47
2022-10-17T23:40:19.828Z,102368.19
2022-10-17T23:42:52.046Z,102360.00
2022-10-17T23:45:23.905Z,102371.97
2022-10-17T23:47:55.774Z,102362.06
2022-10-17T23:50:27.639Z,102376.78
2022-10-17T23:52:59.524Z,102364.16
2022-10-17T23:55:31.401Z,102372.34
2022-10-17T23:58:03.494Z,102375.09
